createdAt,value
2023-04-06T00:01:21.147Z,11.74
2023-04-06T00:03:51.008Z,11.74
2023-04-06T00:06:19.975Z,11.74
2023-04-06T00:08:48.963Z,11.74
2023-04-06T00:11:18.122Z,11.74
2023-04-06T00:13:47.352Z,11.74
2023-04-06T00:16:16.252Z,11.76
2023-04-06T00:18:44.674Z,11.78
2023-04-06T00:21:14.354Z,11.81
2023-04-06T00:23:42.860Z,11.85
2023-04-06T00:26:11.858Z,11.87
2023-04-06T00:28:41.211Z,11.87
2023-04-06T00:31:09.515Z,11.88
2023-04-06T00:33:38.602Z,11.91
2023-04-06T00:36:07.215Z,11.91
2023-04-06T00:38:36.003Z,11.87
2023-04-06T00:41:05.082Z,11.82
2023-04-06T00:43:34.677Z,11.77
2023-04-06T00:46:03.112Z,11.73
2023-04-06T00:48:37.200Z,11.70
2023-04-06T00:51:06.159Z,11.65
2023-04-06T00:53:35.006Z,11.61
2023-04-06T00:56:04.306Z,11.58
2023-04-06T00:58:41.732Z,11.59
2023-04-06T01:01:10.525Z,11.59
2023-04-06T01:03:43.395Z,11.57
2023-04-06T01:06:13.530Z,11.51
2023-04-06T01:08:42.936Z,11.39
2023-04-06T01:11:19.161Z,11.25
2023-04-06T01:13:47.960Z,11.10
2023-04-06T01:16:25.463Z,11.03
2023-04-06T01:19:14.504Z,11.01
2023-04-06T01:21:50.590Z,11.01
2023-04-06T01:24:41.955Z,11.02
2023-04-06T01:27:29.277Z,11.00
2023-04-06T01:30:18.512Z,10.99
2023-04-06T01:32:51.370Z,10.96
2023-04-06T01:35:27.316Z,10.93
2023-04-06T01:38:05.348Z,10.89
2023-04-06T01:40:35.655Z,10.91
2023-04-06T01:43:04.022Z,10.94
2023-04-06T01:45:36.960Z,10.95
2023-04-06T01:48:14.294Z,10.95
2023-04-06T01:50:43.802Z,10.95
2023-04-06T01:53:13.119Z,10.98
2023-04-06T01:55:42.936Z,11.04
2023-04-06T01:58:24.916Z,11.12
2023-04-06T02:00:53.917Z,11.18
2023-04-06T02:03:24.124Z,11.22
2023-04-06T02:06:00.137Z,11.24
2023-04-06T02:08:34.929Z,11.23
2023-04-06T02:11:03.687Z,11.24
2023-04-06T02:13:35.982Z,11.21
2023-04-06T02:16:05.084Z,11.17
2023-04-06T02:18:36.936Z,11.16
2023-04-06T02:21:05.762Z,11.16
2023-04-06T02:23:34.168Z,11.15
2023-04-06T02:26:02.544Z,11.14
2023-04-06T02:28:35.768Z,11.09
2023-04-06T02:31:04.319Z,11.03
2023-04-06T02:33:33.750Z,10.96
2023-04-06T02:36:02.533Z,10.88
2023-04-06T02:38:31.607Z,10.80
2023-04-06T02:41:01.725Z,10.77
2023-04-06T02:43:31.446Z,10.74
2023-04-06T02:46:15.680Z,10.70
2023-04-06T02:48:45.648Z,10.68
2023-04-06T02:51:16.218Z,10.66
2023-04-06T02:53:49.004Z,10.60
2023-04-06T02:56:18.025Z,10.60
2023-04-06T02:58:49.750Z,10.58
2023-04-06T03:01:18.502Z,10.53
2023-04-06T03:03:48.975Z,10.48
2023-04-06T03:06:23.141Z,10.46
2023-04-06T03:08:57.184Z,10.43
2023-04-06T03:11:27.840Z,10.37
2023-04-06T03:13:56.525Z,10.36
2023-04-06T03:16:29.615Z,10.33
2023-04-06T03:18:59.583Z,10.30
2023-04-06T03:22:47.844Z,10.34
2023-04-06T03:25:17.979Z,10.34
2023-04-06T03:27:46.457Z,10.37
2023-04-06T03:30:20.062Z,10.41
2023-04-06T03:32:50.121Z,10.46
2023-04-06T03:35:19.615Z,10.47
2023-04-06T03:37:48.893Z,10.48
2023-04-06T03:40:17.266Z,10.51
2023-04-06T03:42:45.486Z,10.52
2023-04-06T03:45:18.379Z,10.54
2023-04-06T03:47:51.084Z,10.55
2023-04-06T03:50:21.509Z,10.53
2023-04-06T03:52:51.948Z,10.53
2023-04-06T03:55:21.034Z,10.53
2023-04-06T03:57:49.330Z,10.56
2023-04-06T04:00:19.037Z,10.61
2023-04-06T04:02:47.538Z,10.63
2023-04-06T04:05:16.033Z,10.64
2023-04-06T04:07:44.838Z,10.68
2023-04-06T04:10:14.810Z,10.75
2023-04-06T04:12:43.558Z,10.79
2023-04-06T04:15:16.513Z,10.79
2023-04-06T04:18:01.394Z,10.84
2023-04-06T04:20:32.587Z,10.89
2023-04-06T04:23:07.357Z,10.89
2023-04-06T04:25:37.966Z,10.86
2023-04-06T04:28:06.197Z,10.79
2023-04-06T04:30:34.395Z,10.72
2023-04-06T04:33:04.003Z,10.68
2023-04-06T04:35:32.758Z,10.63
2023-04-06T04:38:01.524Z,10.57
2023-04-06T04:40:30.300Z,10.58
2023-04-06T04:43:12.566Z,10.63
2023-04-06T04:45:42.958Z,10.71
2023-04-06T04:48:21.096Z,10.74
2023-04-06T04:50:56.528Z,10.72
2023-04-06T04:53:28.087Z,10.73
2023-04-06T04:56:00.382Z,10.78
2023-04-06T04:58:32.134Z,10.79
2023-04-06T05:01:01.615Z,10.82
2023-04-06T05:03:31.213Z,10.85
2023-04-06T05:06:03.129Z,10.89
2023-04-06T05:08:34.725Z,10.93
2023-04-06T05:11:03.676Z,10.95
2023-04-06T05:13:36.582Z,10.97
2023-04-06T05:16:09.850Z,11.03
2023-04-06T05:18:38.246Z,11.07
2023-04-06T05:21:07.323Z,11.05
2023-04-06T05:23:42.897Z,10.99
2023-04-06T05:26:11.186Z,10.98
2023-04-06T05:28:40.858Z,10.94
2023-04-06T05:31:12.925Z,10.89
2023-04-06T05:33:47.529Z,10.88
2023-04-06T05:36:20.939Z,10.89
2023-04-06T05:38:54.036Z,10.85
2023-04-06T05:41:38.265Z,10.78
2023-04-06T05:44:09.676Z,10.74
2023-04-06T05:46:38.707Z,10.77
2023-04-06T05:49:07.490Z,10.79
2023-04-06T05:51:37.060Z,10.85
2023-04-06T05:54:06.036Z,10.94
2023-04-06T05:56:34.356Z,10.99
2023-04-06T05:59:03.328Z,11.02
2023-04-06T06:01:33.634Z,10.99
2023-04-06T06:04:03.260Z,10.97
2023-04-06T06:06:33.721Z,10.99
2023-04-06T06:09:13.128Z,10.97
2023-04-06T06:11:47.406Z,10.98
2023-04-06T06:14:18.296Z,11.05
2023-04-06T06:16:50.107Z,11.13
2023-04-06T06:19:18.704Z,11.23
2023-04-06T06:21:47.591Z,11.26
2023-04-06T06:24:20.847Z,11.24
2023-04-06T06:26:50.281Z,11.24
2023-04-06T06:29:19.604Z,11.23
2023-04-06T06:31:48.932Z,11.22
2023-04-06T06:34:20.154Z,11.24
2023-04-06T06:36:52.975Z,11.26
2023-04-06T06:39:22.341Z,11.26
2023-04-06T06:41:51.655Z,11.30
2023-04-06T06:44:23.747Z,11.42
2023-04-06T06:46:56.891Z,11.58
2023-04-06T06:49:25.416Z,11.71
2023-04-06T06:51:53.825Z,11.78
2023-04-06T06:54:22.472Z,11.87
2023-04-06T06:56:51.149Z,11.99
2023-04-06T06:59:23.270Z,12.17
2023-04-06T07:01:52.744Z,12.31
2023-04-06T07:04:21.911Z,12.41
2023-04-06T07:06:53.969Z,12.53
2023-04-06T07:09:23.048Z,12.62
2023-04-06T07:11:51.380Z,12.68
2023-04-06T07:14:21.892Z,12.73
2023-04-06T07:16:52.164Z,12.87
2023-04-06T07:19:21.184Z,13.00
2023-04-06T07:21:53.160Z,13.13
2023-04-06T07:24:22.203Z,13.30
2023-04-06T07:26:55.981Z,13.46
2023-04-06T07:29:24.465Z,13.66
2023-04-06T07:31:53.783Z,13.81
2023-04-06T07:34:22.879Z,13.95
2023-04-06T07:36:53.987Z,14.03
2023-04-06T07:51:18.826Z,14.01
2023-04-06T07:53:49.701Z,13.90
2023-04-06T07:56:19.007Z,13.87
2023-04-06T07:58:56.741Z,13.87
2023-04-06T08:01:28.656Z,13.83
2023-04-06T08:03:57.967Z,13.80
2023-04-06T08:06:26.381Z,13.77
2023-04-06T08:09:00.224Z,13.74
2023-04-06T08:11:29.258Z,13.63
2023-04-06T08:13:59.693Z,13.50
2023-04-06T08:16:29.166Z,13.40
2023-04-06T08:18:58.851Z,13.38
2023-04-06T08:21:28.080Z,13.36
2023-04-06T08:23:56.749Z,13.37
2023-04-06T08:26:26.591Z,13.35
2023-04-06T08:28:55.111Z,13.32
2023-04-06T08:31:23.434Z,13.27
2023-04-06T08:33:53.031Z,13.21
2023-04-06T08:36:24.235Z,13.14
2023-04-06T08:38:53.632Z,13.04
2023-04-06T08:41:22.221Z,12.92
2023-04-06T08:43:55.969Z,12.82
2023-04-06T08:46:31.982Z,12.75
2023-04-06T08:49:03.555Z,12.68
2023-04-06T08:51:33.054Z,12.63
2023-04-06T08:54:03.955Z,12.59
2023-04-06T08:56:35.337Z,12.56
2023-04-06T08:59:04.038Z,12.50
2023-04-06T09:01:36.100Z,12.38
2023-04-06T09:04:10.677Z,12.28
2023-04-06T09:06:39.640Z,12.21
2023-04-06T09:09:08.464Z,12.18
2023-04-06T09:12:07.081Z,12.15
2023-04-06T09:14:41.791Z,12.08
2023-04-06T09:17:10.637Z,12.04
2023-04-06T09:19:49.624Z,12.05
2023-04-06T09:22:19.353Z,12.06
2023-04-06T09:24:50.681Z,12.07
2023-04-06T09:27:40.070Z,12.09
2023-04-06T09:30:17.161Z,12.12
2023-04-06T09:32:57.146Z,12.16
2023-04-06T09:35:28.029Z,12.20
2023-04-06T09:37:57.198Z,12.22
2023-04-06T09:40:26.410Z,12.21
2023-04-06T09:42:59.696Z,12.16
2023-04-06T09:45:29.244Z,12.08
2023-04-06T09:48:01.097Z,11.97
2023-04-06T09:50:34.369Z,11.89
2023-04-06T09:53:02.715Z,11.80
2023-04-06T09:55:41.381Z,11.75
2023-04-06T09:58:20.501Z,11.74
2023-04-06T10:01:04.525Z,11.78
2023-04-06T10:03:33.824Z,11.88
2023-04-06T10:06:05.967Z,11.96
2023-04-06T10:08:34.716Z,12.05
2023-04-06T10:11:04.828Z,12.12
2023-04-06T10:13:34.374Z,12.17
2023-04-06T10:16:10.012Z,12.20
2023-04-06T10:18:53.749Z,12.19
2023-04-06T10:21:25.170Z,12.24
2023-04-06T10:23:59.403Z,12.24
2023-04-06T10:26:27.768Z,12.25
2023-04-06T10:28:56.672Z,12.23
2023-04-06T10:31:29.428Z,12.21
2023-04-06T10:33:59.429Z,12.21
2023-04-06T10:36:34.903Z,12.18
2023-04-06T10:39:05.496Z,12.11
2023-04-06T10:41:44.347Z,12.02
2023-04-06T10:44:23.166Z,11.95
2023-04-06T10:46:58.871Z,11.88
2023-04-06T10:49:27.960Z,11.87
2023-04-06T10:51:57.133Z,11.80
2023-04-06T10:54:27.187Z,11.72
2023-04-06T10:56:57.358Z,11.66
2023-04-06T10:59:29.333Z,11.62
2023-04-06T11:01:58.207Z,11.61
2023-04-06T11:04:28.456Z,11.64
2023-04-06T11:07:04.928Z,11.61
2023-04-06T11:09:34.317Z,11.61
2023-04-06T11:12:02.954Z,11.62
2023-04-06T11:14:31.645Z,11.63
2023-04-06T11:17:10.317Z,11.61
2023-04-06T11:20:11.992Z,11.58
2023-04-06T11:22:53.367Z,11.56
2023-04-06T11:25:22.164Z,11.57
2023-04-06T11:27:51.201Z,11.61
2023-04-06T11:30:36.123Z,11.65
2023-04-06T11:33:12.629Z,11.71
2023-04-06T11:35:47.444Z,11.74
2023-04-06T11:38:23.693Z,11.76
2023-04-06T11:41:02.540Z,11.76
2023-04-06T11:43:32.929Z,11.69
2023-04-06T11:46:04.826Z,11.62
2023-04-06T11:48:34.669Z,11.69
2023-04-06T11:51:05.091Z,11.76
2023-04-06T11:53:34.579Z,11.79
2023-04-06T11:56:02.928Z,11.83
2023-04-06T11:58:33.727Z,11.83
2023-04-06T12:01:06.152Z,11.75
2023-04-06T12:03:36.153Z,11.62
2023-04-06T12:06:05.410Z,11.52
2023-04-06T12:08:37.622Z,11.42
2023-04-06T12:11:06.087Z,11.35
2023-04-06T12:13:40.375Z,11.32
2023-04-06T12:16:09.198Z,11.35
2023-04-06T12:18:41.159Z,11.41
2023-04-06T12:21:11.974Z,11.47
2023-04-06T12:23:40.922Z,11.54
2023-04-06T12:26:13.354Z,11.55
2023-04-06T12:28:46.051Z,11.61
2023-04-06T12:31:18.048Z,11.67
2023-04-06T12:33:50.801Z,11.67
2023-04-06T12:36:25.221Z,11.61
2023-04-06T12:38:57.899Z,11.63
2023-04-06T12:41:26.782Z,11.70
2023-04-06T12:43:55.608Z,11.76
2023-04-06T12:46:24.473Z,11.84
2023-04-06T12:48:57.703Z,11.90
2023-04-06T12:51:32.638Z,11.94
2023-04-06T12:54:01.140Z,11.94
2023-04-06T12:56:30.040Z,11.91
2023-04-06T12:59:00.684Z,11.90
2023-04-06T13:01:30.261Z,11.87
2023-04-06T13:04:00.490Z,11.83
2023-04-06T13:06:35.252Z,11.79
2023-04-06T13:09:05.440Z,11.73
2023-04-06T13:11:34.675Z,11.67
2023-04-06T13:14:03.656Z,11.59
2023-04-06T13:16:35.075Z,11.55
2023-04-06T13:19:03.789Z,11.52
2023-04-06T13:21:34.893Z,11.48
2023-04-06T13:24:03.368Z,11.40
2023-04-06T13:26:31.709Z,11.32
2023-04-06T13:29:02.184Z,11.26
2023-04-06T13:31:30.752Z,11.24
2023-04-06T13:33:59.698Z,11.27
2023-04-06T13:36:28.177Z,11.26
2023-04-06T13:38:58.430Z,11.23
2023-04-06T13:41:27.670Z,11.18
2023-04-06T13:43:56.153Z,11.15
2023-04-06T13:46:26.685Z,11.13
2023-04-06T13:48:56.096Z,11.11
2023-04-06T13:51:24.931Z,11.08
2023-04-06T13:53:54.852Z,11.06
2023-04-06T13:56:23.383Z,11.04
2023-04-06T13:58:55.738Z,11.05
2023-04-06T14:01:24.430Z,11.06
2023-04-06T14:03:53.868Z,11.09
2023-04-06T14:06:31.161Z,11.09
2023-04-06T14:09:01.098Z,11.12
2023-04-06T14:11:33.084Z,11.11
2023-04-06T14:14:02.067Z,11.09
2023-04-06T14:16:30.823Z,11.04
2023-04-06T14:19:00.027Z,10.98
2023-04-06T14:21:28.859Z,10.92
2023-04-06T14:23:59.550Z,10.85
2023-04-06T14:26:28.829Z,10.80
2023-04-06T14:29:03.652Z,10.75
2023-04-06T14:31:32.706Z,10.68
2023-04-06T14:34:02.483Z,10.62
2023-04-06T14:36:37.561Z,10.53
2023-04-06T14:39:09.040Z,10.44
2023-04-06T14:41:38.625Z,10.31
2023-04-06T14:44:18.948Z,10.23
2023-04-06T14:46:47.660Z,10.15
2023-04-06T14:49:16.907Z,10.09
2023-04-06T14:51:45.378Z,10.06
2023-04-06T14:54:15.044Z,10.05
2023-04-06T14:56:44.316Z,10.05
2023-04-06T14:59:13.920Z,10.03
2023-04-06T15:01:43.302Z,10.01
2023-04-06T15:04:15.315Z,9.97
2023-04-06T15:06:44.200Z,9.92
2023-04-06T15:09:14.710Z,9.86
2023-04-06T15:11:43.123Z,9.79
2023-04-06T15:14:12.044Z,9.77
2023-04-06T15:16:48.074Z,9.75
2023-04-06T15:19:18.040Z,9.73
2023-04-06T15:21:46.787Z,9.74
2023-04-06T15:24:41.680Z,9.71
2023-04-06T15:27:12.569Z,9.67
2023-04-06T15:29:41.916Z,9.62
2023-04-06T15:32:10.600Z,9.58
2023-04-06T15:34:42.479Z,9.57
2023-04-06T15:39:20.227Z,9.58
2023-04-06T15:41:49.494Z,9.56
2023-04-06T15:44:19.520Z,9.55
2023-04-06T15:46:48.100Z,9.51
2023-04-06T15:49:20.591Z,9.46
2023-04-06T15:51:49.909Z,9.40
2023-04-06T15:54:21.614Z,9.33
2023-04-06T15:56:51.999Z,9.27
2023-04-06T15:59:25.129Z,9.23
2023-04-06T16:02:03.693Z,9.19
2023-04-06T16:04:42.077Z,9.17
2023-04-06T16:07:11.208Z,9.16
2023-04-06T16:09:43.911Z,9.15
2023-04-06T16:12:12.832Z,9.13
2023-04-06T16:14:43.343Z,9.11
2023-04-06T16:17:14.828Z,9.10
2023-04-06T16:19:55.337Z,9.07
2023-04-06T16:22:29.458Z,9.05
2023-04-06T16:24:59.281Z,9.04
2023-04-06T16:27:30.831Z,9.04
2023-04-06T16:30:06.686Z,9.04
2023-04-06T16:32:52.058Z,9.02
2023-04-06T16:35:26.960Z,9.00
2023-04-06T16:37:55.805Z,8.96
2023-04-06T16:40:32.587Z,8.91
2023-04-06T16:43:01.677Z,8.87
2023-04-06T16:45:32.763Z,8.84
2023-04-06T16:48:04.265Z,8.82
2023-04-06T16:50:42.029Z,8.80
2023-04-06T16:53:18.425Z,8.78
2023-04-06T16:55:58.035Z,8.74
2023-04-06T16:58:26.844Z,8.75
2023-04-06T17:01:00.989Z,8.75
2023-04-06T17:03:31.795Z,8.73
2023-04-06T17:06:11.530Z,8.68
2023-04-06T17:08:42.821Z,8.64
2023-04-06T17:11:21.771Z,8.63
2023-04-06T17:13:59.707Z,8.61
2023-04-06T17:16:29.247Z,8.58
2023-04-06T17:18:58.361Z,8.54
2023-04-06T17:21:28.111Z,8.52
2023-04-06T17:23:56.617Z,8.50
2023-04-06T17:26:25.374Z,8.48
2023-04-06T17:28:54.332Z,8.45
2023-04-06T17:31:23.005Z,8.41
2023-04-06T17:33:56.293Z,8.35
2023-04-06T17:36:24.935Z,8.29
2023-04-06T17:39:00.064Z,8.24
2023-04-06T17:41:35.101Z,8.23
2023-04-06T17:44:03.775Z,8.23
2023-04-06T17:46:33.006Z,8.25
2023-04-06T17:49:02.450Z,8.27
2023-04-06T17:51:32.445Z,8.29
2023-04-06T17:54:04.306Z,8.29
2023-04-06T17:56:34.246Z,8.29
2023-04-06T17:59:11.243Z,8.27
2023-04-06T18:01:45.789Z,8.26
2023-04-06T18:04:15.293Z,8.21
2023-04-06T18:06:44.315Z,8.17
2023-04-06T18:09:19.452Z,8.15
2023-04-06T18:11:49.305Z,8.14
2023-04-06T18:14:18.306Z,8.14
2023-04-06T18:16:48.297Z,8.14
2023-04-06T18:19:22.245Z,8.13
2023-04-06T18:21:50.759Z,8.09
2023-04-06T18:24:37.619Z,8.04
2023-04-06T18:27:07.838Z,8.02
2023-04-06T18:29:39.671Z,8.02
2023-04-06T18:32:08.168Z,8.02
2023-04-06T18:34:36.582Z,8.03
2023-04-06T18:37:06.116Z,8.03
2023-04-06T18:39:34.688Z,8.04
2023-04-06T18:42:03.873Z,8.06
2023-04-06T18:44:32.480Z,8.08
2023-04-06T18:47:01.472Z,8.12
2023-04-06T18:49:33.214Z,8.12
2023-04-06T18:52:03.259Z,8.09
2023-04-06T18:54:31.987Z,8.07
2023-04-06T18:57:02.224Z,8.05
2023-04-06T18:59:31.944Z,8.03
2023-04-06T19:02:02.387Z,8.00
2023-04-06T19:04:31.031Z,8.00
2023-04-06T19:07:02.057Z,8.02
2023-04-06T19:09:31.104Z,8.05
2023-04-06T19:12:03.444Z,8.08
2023-04-06T19:14:33.121Z,8.10
2023-04-06T19:17:12.298Z,8.10
2023-04-06T19:19:41.708Z,8.09
2023-04-06T19:22:11.366Z,8.08
2023-04-06T19:24:42.784Z,8.05
2023-04-06T19:27:11.283Z,8.02
2023-04-06T19:29:48.089Z,8.00
2023-04-06T19:32:20.990Z,7.98
2023-04-06T19:34:55.357Z,7.99
2023-04-06T19:37:31.369Z,8.02
2023-04-06T19:40:12.754Z,8.05
2023-04-06T19:42:44.171Z,8.06
2023-04-06T19:45:15.209Z,8.05
2023-04-06T19:47:46.656Z,8.05
2023-04-06T19:50:21.901Z,8.01
2023-04-06T19:53:04.038Z,7.95
2023-04-06T19:55:38.713Z,7.97
2023-04-06T19:58:09.762Z,7.96
2023-04-06T20:00:40.877Z,7.95
2023-04-06T20:03:12.978Z,7.95
2023-04-06T20:05:43.771Z,7.97
2023-04-06T20:08:17.782Z,7.99
2023-04-06T20:10:48.665Z,7.99
2023-04-06T20:13:29.661Z,7.97
2023-04-06T20:16:08.491Z,7.96
2023-04-06T20:18:47.838Z,7.95
2023-04-06T20:21:21.874Z,7.95
2023-04-06T20:23:56.642Z,7.95
2023-04-06T20:26:29.866Z,7.95
2023-04-06T20:28:58.787Z,7.97
2023-04-06T20:31:33.215Z,7.99
2023-04-06T20:34:02.263Z,8.02
2023-04-06T20:36:35.739Z,8.04
2023-04-06T20:39:05.255Z,8.05
2023-04-06T20:41:39.024Z,8.04
2023-04-06T20:44:07.995Z,8.03
2023-04-06T20:46:37.265Z,8.01
2023-04-06T20:49:06.951Z,7.99
2023-04-06T20:51:35.846Z,7.97
2023-04-06T20:54:05.160Z,7.96
2023-04-06T20:56:35.072Z,7.98
2023-04-06T20:59:05.475Z,8.00
2023-04-06T21:01:34.264Z,8.01
2023-04-06T21:04:05.992Z,8.02
2023-04-06T21:06:34.391Z,8.01
2023-04-06T21:09:02.711Z,7.99
2023-04-06T21:11:31.469Z,7.98
2023-04-06T21:13:59.921Z,7.97
2023-04-06T21:16:34.909Z,7.94
2023-04-06T21:19:03.459Z,7.92
2023-04-06T21:21:31.759Z,7.92
2023-04-06T21:24:01.988Z,7.92
2023-04-06T21:26:31.112Z,7.96
2023-04-06T21:28:59.320Z,7.98
2023-04-06T21:31:29.720Z,8.01
2023-04-06T21:33:59.096Z,8.01
2023-04-06T21:36:27.343Z,8.00
2023-04-06T21:38:56.111Z,7.97
2023-04-06T21:41:24.502Z,7.95
2023-04-06T21:43:53.394Z,7.94
2023-04-06T21:46:22.047Z,7.91
2023-04-06T21:48:51.071Z,7.88
2023-04-06T21:51:20.560Z,7.88
2023-04-06T21:53:49.156Z,7.89
2023-04-06T21:56:24.762Z,7.89
2023-04-06T21:58:55.741Z,7.85
2023-04-06T22:01:23.954Z,7.80
2023-04-06T22:03:56.074Z,7.77
2023-04-06T22:06:26.044Z,7.79
2023-04-06T22:08:54.382Z,7.78
2023-04-06T22:11:26.491Z,7.77
2023-04-06T22:13:54.654Z,7.75
2023-04-06T22:16:23.165Z,7.76
2023-04-06T22:18:55.427Z,7.78
2023-04-06T22:21:23.670Z,7.79
2023-04-06T22:23:52.009Z,7.82
2023-04-06T22:26:21.383Z,7.87
2023-04-06T22:28:49.828Z,7.92
2023-04-06T22:31:18.385Z,7.93
2023-04-06T22:33:48.179Z,7.90
2023-04-06T22:36:17.028Z,7.85
2023-04-06T22:38:49.472Z,7.80
2023-04-06T22:41:17.749Z,7.77
2023-04-06T22:43:46.139Z,7.73
2023-04-06T22:46:14.782Z,7.75
2023-04-06T22:48:43.435Z,7.74
2023-04-06T22:51:11.830Z,7.73
2023-04-06T22:53:40.031Z,7.72
2023-04-06T22:56:08.484Z,7.68
2023-04-06T22:58:37.589Z,7.66
2023-04-06T23:01:08.543Z,7.65
2023-04-06T23:03:38.679Z,7.63
2023-04-06T23:06:07.248Z,7.58
2023-04-06T23:08:35.752Z,7.53
2023-04-06T23:11:04.345Z,7.52
2023-04-06T23:13:36.770Z,7.52
2023-04-06T23:16:05.829Z,7.54
2023-04-06T23:18:35.863Z,7.58
2023-04-06T23:21:07.961Z,7.61
2023-04-06T23:23:37.730Z,7.65
2023-04-06T23:26:06.259Z,7.70
2023-04-06T23:28:34.978Z,7.71
2023-04-06T23:31:03.239Z,7.69
2023-04-06T23:33:32.819Z,7.66
2023-04-06T23:36:01.495Z,7.63
2023-04-06T23:38:31.327Z,7.62
2023-04-06T23:40:59.771Z,7.58
2023-04-06T23:43:27.962Z,7.53
2023-04-06T23:45:57.503Z,7.51
2023-04-06T23:48:26.218Z,7.53
2023-04-06T23:50:54.577Z,7.56
2023-04-06T23:53:24.767Z,7.60
2023-04-06T23:55:53.452Z,7.63
2023-04-06T23:58:21.574Z,7.66
